createdAt,value
2022-10-10T00:01:37.477Z,6.90
2022-10-10T00:04:06.624Z,7.00
2022-10-10T00:06:34.653Z,7.00
2022-10-10T00:09:04.599Z,7.00
2022-10-10T00:11:33.090Z,7.00
2022-10-10T00:14:01.274Z,7.00
2022-10-10T00:16:29.528Z,6.90
2022-10-10T00:18:58.910Z,7.00
2022-10-10T00:21:26.886Z,7.00
2022-10-10T00:23:54.941Z,7.00
2022-10-10T00:26:23.041Z,7.00
2022-10-10T00:28:51.283Z,6.90
2022-10-10T00:31:20.058Z,6.90
2022-10-10T00:33:48.618Z,6.90
2022-10-10T00:36:20.491Z,6.90
2022-10-10T00:38:49.304Z,6.90
2022-10-10T00:41:17.514Z,6.90
2022-10-10T00:44:07.793Z,7.00
2022-10-10T00:46:36.958Z,7.00
2022-10-10T00:49:11.222Z,7.00
2022-10-10T00:51:41.389Z,7.00
2022-10-10T00:54:13.913Z,7.00
2022-10-10T00:56:47.539Z,7.00
2022-10-10T00:59:16.558Z,6.90
2022-10-10T01:01:44.627Z,6.90
2022-10-10T01:04:33.129Z,6.90
2022-10-10T01:07:05.190Z,6.90
2022-10-10T01:09:35.104Z,6.90
2022-10-10T01:12:19.682Z,6.80
2022-10-10T01:15:01.075Z,6.80
2022-10-10T01:17:37.299Z,6.90
2022-10-10T01:20:52.189Z,6.90
2022-10-10T01:24:17.888Z,6.90
2022-10-10T01:27:10.892Z,6.90
2022-10-10T01:29:46.755Z,6.80
2022-10-10T01:32:24.940Z,6.70
2022-10-10T01:35:14.619Z,6.60
2022-10-10T01:37:54.558Z,6.70
2022-10-10T01:40:31.462Z,6.60
2022-10-10T01:43:04.439Z,6.70
2022-10-10T01:45:33.980Z,6.70
2022-10-10T01:48:06.805Z,6.60
2022-10-10T01:50:45.475Z,6.60
2022-10-10T01:53:24.677Z,6.60
2022-10-10T01:56:01.027Z,6.60
2022-10-10T01:58:58.123Z,6.60
2022-10-10T02:01:37.657Z,6.60
2022-10-10T02:04:16.196Z,6.60
2022-10-10T02:06:50.970Z,6.50
2022-10-10T02:09:27.586Z,6.60
2022-10-10T02:11:59.641Z,6.60
2022-10-10T02:14:37.078Z,6.60
2022-10-10T02:17:11.725Z,6.60
2022-10-10T02:19:45.537Z,6.60
2022-10-10T02:22:15.530Z,6.60
2022-10-10T02:24:44.386Z,6.60
2022-10-10T02:27:20.516Z,6.50
2022-10-10T02:29:52.175Z,6.60
2022-10-10T02:32:27.125Z,6.60
2022-10-10T02:35:01.709Z,6.50
2022-10-10T02:37:31.710Z,6.50
2022-10-10T02:40:05.834Z,6.50
2022-10-10T02:42:35.840Z,6.50
2022-10-10T02:45:05.088Z,6.50
2022-10-10T02:47:34.459Z,6.50
2022-10-10T02:50:02.492Z,6.40
2022-10-10T02:52:30.618Z,6.40
2022-10-10T02:54:58.745Z,6.40
2022-10-10T02:57:26.994Z,6.40
2022-10-10T02:59:55.055Z,6.40
2022-10-10T03:02:23.107Z,6.40
2022-10-10T03:04:52.924Z,6.30
2022-10-10T03:07:20.884Z,6.20
2022-10-10T03:09:49.398Z,6.20
2022-10-10T03:12:17.875Z,6.10
2022-10-10T03:14:46.249Z,6.10
2022-10-10T03:17:14.587Z,6.10
2022-10-10T03:19:42.637Z,6.20
2022-10-10T03:22:12.114Z,6.20
2022-10-10T03:24:40.396Z,6.20
2022-10-10T03:27:08.390Z,6.20
2022-10-10T03:29:36.864Z,6.20
2022-10-10T03:32:07.938Z,6.10
2022-10-10T03:34:38.914Z,6.10
2022-10-10T03:37:06.974Z,6.10
2022-10-10T03:39:36.343Z,6.10
2022-10-10T03:42:04.624Z,6.10
2022-10-10T03:44:33.243Z,6.10
2022-10-10T03:47:01.203Z,6.00
2022-10-10T03:49:29.329Z,6.10
2022-10-10T03:51:57.356Z,6.00
2022-10-10T03:54:25.390Z,5.90
2022-10-10T03:56:54.829Z,5.90
2022-10-10T03:59:22.893Z,5.90
2022-10-10T04:01:51.111Z,5.90
2022-10-10T04:04:19.127Z,5.90
2022-10-10T04:06:47.170Z,5.90
2022-10-10T04:09:15.409Z,5.80
2022-10-10T04:11:43.539Z,5.80
2022-10-10T04:14:12.822Z,5.80
2022-10-10T04:16:40.822Z,5.80
2022-10-10T04:19:08.968Z,5.80
2022-10-10T04:21:37.223Z,5.80
2022-10-10T04:24:05.857Z,5.80
2022-10-10T04:26:34.311Z,5.80
2022-10-10T04:29:02.341Z,5.80
2022-10-10T04:31:33.094Z,5.80
2022-10-10T04:34:01.205Z,5.70
2022-10-10T04:36:29.235Z,5.70
2022-10-10T04:38:57.212Z,5.70
2022-10-10T04:41:25.283Z,5.60
2022-10-10T04:43:53.435Z,5.70
2022-10-10T04:46:21.595Z,5.60
2022-10-10T04:48:51.079Z,5.60
2022-10-10T04:51:19.653Z,5.60
2022-10-10T04:53:50.466Z,5.60
2022-10-10T04:56:18.765Z,5.50
2022-10-10T04:58:46.751Z,5.50
2022-10-10T05:01:14.837Z,5.50
2022-10-10T05:03:42.854Z,5.40
2022-10-10T05:06:12.267Z,5.40
2022-10-10T05:08:40.633Z,5.40
2022-10-10T05:11:08.642Z,5.40
2022-10-10T05:13:36.649Z,5.40
2022-10-10T05:16:04.960Z,5.40
2022-10-10T05:18:33.018Z,5.40
2022-10-10T05:21:03.629Z,5.30
2022-10-10T05:23:33.462Z,5.30
2022-10-10T05:26:01.482Z,5.40
2022-10-10T05:28:29.509Z,5.30
2022-10-10T05:30:57.580Z,5.40
2022-10-10T05:33:25.540Z,5.30
2022-10-10T05:35:53.558Z,5.30
2022-10-10T05:38:21.528Z,5.40
2022-10-10T05:40:50.864Z,5.50
2022-10-10T05:43:18.827Z,5.50
2022-10-10T05:45:46.833Z,5.60
2022-10-10T05:48:15.199Z,5.60
2022-10-10T05:50:49.771Z,5.70
2022-10-10T05:53:18.277Z,5.70
2022-10-10T05:55:46.594Z,5.80
2022-10-10T05:58:17.186Z,5.80
2022-10-10T06:00:47.529Z,5.80
2022-10-10T06:03:17.252Z,5.80
2022-10-10T06:05:48.378Z,5.80
2022-10-10T06:08:16.505Z,5.90
2022-10-10T06:10:47.004Z,5.90
2022-10-10T06:13:23.865Z,5.90
2022-10-10T06:15:53.005Z,6.10
2022-10-10T06:18:21.110Z,6.20
2022-10-10T06:20:49.108Z,6.30
2022-10-10T06:23:18.127Z,6.50
2022-10-10T06:25:46.127Z,6.50
2022-10-10T06:28:14.365Z,6.60
2022-10-10T06:30:48.384Z,6.70
2022-10-10T06:33:18.958Z,6.80
2022-10-10T06:35:49.426Z,6.90
2022-10-10T06:38:18.428Z,7.00
2022-10-10T06:40:48.553Z,7.00
2022-10-10T06:43:18.316Z,7.00
2022-10-10T06:45:51.474Z,6.90
2022-10-10T06:48:19.477Z,6.90
2022-10-10T06:51:01.545Z,6.90
2022-10-10T06:53:30.592Z,6.90
2022-10-10T06:55:59.901Z,6.80
2022-10-10T06:58:29.824Z,6.90
2022-10-10T07:01:01.824Z,6.90
2022-10-10T07:03:31.520Z,7.00
2022-10-10T07:06:01.987Z,7.10
2022-10-10T07:08:31.233Z,7.40
2022-10-10T07:10:59.217Z,7.60
2022-10-10T07:13:27.206Z,7.70
2022-10-10T07:15:55.322Z,7.80
2022-10-10T07:18:24.781Z,7.80
2022-10-10T07:20:56.928Z,7.90
2022-10-10T07:23:25.014Z,8.00
2022-10-10T07:25:53.884Z,8.10
2022-10-10T07:28:21.939Z,8.20
2022-10-10T07:30:50.085Z,8.20
2022-10-10T07:33:18.341Z,8.40
2022-10-10T07:35:54.496Z,8.50
2022-10-10T07:38:22.555Z,8.60
2022-10-10T07:40:50.551Z,8.90
2022-10-10T07:43:18.729Z,8.90
2022-10-10T07:45:47.059Z,9.10
2022-10-10T07:48:15.171Z,9.30
2022-10-10T07:50:44.155Z,9.40
2022-10-10T07:53:14.048Z,9.30
2022-10-10T07:55:42.235Z,9.20
2022-10-10T07:58:11.991Z,9.20
2022-10-10T08:00:42.120Z,9.20
2022-10-10T08:03:12.344Z,9.10
2022-10-10T08:05:42.675Z,9.20
2022-10-10T08:08:13.334Z,9.20
2022-10-10T08:10:44.570Z,9.20
2022-10-10T08:13:12.614Z,9.20
2022-10-10T08:15:41.014Z,9.30
2022-10-10T08:18:09.196Z,9.40
2022-10-10T08:20:37.285Z,9.40
2022-10-10T08:23:05.380Z,9.50
2022-10-10T08:25:35.373Z,9.70
2022-10-10T08:28:03.523Z,9.70
2022-10-10T08:30:31.642Z,10.00
2022-10-10T08:32:59.663Z,10.00
2022-10-10T08:35:27.713Z,10.10
2022-10-10T08:37:55.999Z,10.20
2022-10-10T08:40:28.620Z,10.20
2022-10-10T08:43:03.276Z,10.30
2022-10-10T08:45:34.313Z,10.40
2022-10-10T08:48:06.922Z,10.50
2022-10-10T08:50:41.740Z,10.60
2022-10-10T08:53:21.420Z,11.00
2022-10-10T08:55:51.306Z,11.20
2022-10-10T08:58:30.295Z,11.10
2022-10-10T09:01:07.987Z,11.10
2022-10-10T09:03:44.032Z,11.10
2022-10-10T09:06:40.553Z,11.30
2022-10-10T09:09:25.199Z,11.40
2022-10-10T09:12:13.056Z,11.50
2022-10-10T09:15:01.954Z,11.60
2022-10-10T09:17:43.489Z,11.80
2022-10-10T09:20:31.438Z,11.80
2022-10-10T09:23:05.452Z,11.90
2022-10-10T09:25:40.131Z,12.00
2022-10-10T09:28:17.616Z,11.90
2022-10-10T09:30:53.911Z,11.80
2022-10-10T09:33:33.025Z,11.70
2022-10-10T09:36:07.944Z,11.80
2022-10-10T09:38:43.926Z,11.80
2022-10-10T09:41:20.534Z,11.90
2022-10-10T09:43:49.202Z,12.10
2022-10-10T09:46:18.699Z,12.20
2022-10-10T09:48:46.725Z,12.50
2022-10-10T09:51:17.802Z,12.50
2022-10-10T09:53:48.389Z,12.50
2022-10-10T09:56:20.494Z,12.70
2022-10-10T09:58:50.802Z,12.60
2022-10-10T10:01:23.634Z,12.60
2022-10-10T10:04:28.337Z,12.60
2022-10-10T10:07:07.297Z,12.60
2022-10-10T10:09:35.693Z,12.90
2022-10-10T10:12:07.239Z,12.90
2022-10-10T10:14:39.573Z,12.90
2022-10-10T10:17:14.162Z,12.80
2022-10-10T10:19:45.268Z,12.80
2022-10-10T10:22:34.052Z,12.70
2022-10-10T10:25:33.464Z,12.90
2022-10-10T10:28:22.126Z,12.80
2022-10-10T10:30:53.495Z,12.80
2022-10-10T10:33:39.391Z,12.80
2022-10-10T10:36:27.995Z,12.80
2022-10-10T10:39:12.118Z,12.90
2022-10-10T10:41:57.361Z,12.90
2022-10-10T10:44:41.243Z,12.80
2022-10-10T10:47:33.084Z,12.90
2022-10-10T10:50:26.693Z,12.90
2022-10-10T10:53:05.201Z,13.10
2022-10-10T10:55:43.537Z,13.10
2022-10-10T10:59:22.603Z,13.20
2022-10-10T11:01:56.336Z,13.30
2022-10-10T11:05:24.438Z,13.40
2022-10-10T11:08:00.600Z,13.40
2022-10-10T11:10:39.452Z,13.60
2022-10-10T11:13:24.272Z,13.50
2022-10-10T11:16:07.395Z,13.60
2022-10-10T11:18:46.814Z,13.50
2022-10-10T11:21:21.107Z,13.70
2022-10-10T11:23:57.223Z,13.50
2022-10-10T11:26:30.873Z,13.60
2022-10-10T11:29:06.916Z,13.80
2022-10-10T11:31:43.529Z,13.80
2022-10-10T11:34:23.346Z,13.90
2022-10-10T11:36:55.584Z,14.10
2022-10-10T11:39:32.031Z,14.20
2022-10-10T11:42:07.345Z,14.30
2022-10-10T11:44:43.849Z,14.30
2022-10-10T11:47:22.477Z,14.30
2022-10-10T11:49:59.441Z,14.50
2022-10-10T11:52:38.204Z,14.90
2022-10-10T11:55:17.808Z,14.90
2022-10-10T11:57:54.275Z,14.90
2022-10-10T12:00:24.011Z,15.00
2022-10-10T12:02:57.657Z,15.20
2022-10-10T12:05:29.236Z,15.30
2022-10-10T12:08:17.793Z,15.30
2022-10-10T12:10:52.963Z,15.30
2022-10-10T12:13:32.465Z,15.20
2022-10-10T12:16:08.730Z,15.00
2022-10-10T12:18:45.227Z,14.90
2022-10-10T12:21:16.921Z,15.00
2022-10-10T12:23:49.002Z,14.80
2022-10-10T12:26:20.553Z,14.80
2022-10-10T12:29:10.798Z,14.90
2022-10-10T12:31:40.812Z,14.90
2022-10-10T12:34:38.397Z,15.00
2022-10-10T12:37:26.044Z,15.00
2022-10-10T12:40:29.443Z,15.20
2022-10-10T12:43:24.706Z,15.30
2022-10-10T12:46:18.508Z,15.70
2022-10-10T12:49:02.620Z,16.00
2022-10-10T12:51:35.776Z,16.30
2022-10-10T12:54:06.965Z,16.20
2022-10-10T12:56:40.750Z,16.10
2022-10-10T12:59:21.882Z,16.10
2022-10-10T13:01:56.521Z,16.20
2022-10-10T13:04:28.403Z,16.20
2022-10-10T13:07:00.336Z,16.40
2022-10-10T13:09:35.605Z,16.50
2022-10-10T13:12:07.594Z,16.30
2022-10-10T13:14:42.292Z,16.30
2022-10-10T13:17:24.452Z,16.50
2022-10-10T13:19:57.098Z,16.60
2022-10-10T13:22:26.934Z,16.30
2022-10-10T13:24:55.906Z,16.60
2022-10-10T13:27:27.311Z,16.90
2022-10-10T13:29:58.889Z,17.50
2022-10-10T13:32:32.488Z,17.40
2022-10-10T13:35:06.889Z,16.90
2022-10-10T13:37:36.431Z,16.50
2022-10-10T13:40:05.487Z,16.20
2022-10-10T13:42:38.529Z,16.70
2022-10-10T13:45:35.998Z,17.40
2022-10-10T13:48:28.009Z,18.90
2022-10-10T13:51:07.726Z,20.20
2022-10-10T13:53:49.768Z,20.70
2022-10-10T13:56:24.810Z,20.50
2022-10-10T13:58:56.257Z,20.50
2022-10-10T14:01:34.217Z,20.50
2022-10-10T14:04:23.759Z,20.00
2022-10-10T14:07:02.390Z,20.20
2022-10-10T14:09:37.081Z,20.50
2022-10-10T14:12:09.465Z,21.00
2022-10-10T14:14:47.735Z,21.20
2022-10-10T14:17:17.635Z,21.10
2022-10-10T14:19:48.540Z,21.30
2022-10-10T14:22:19.039Z,20.70
2022-10-10T14:24:47.451Z,20.70
2022-10-10T14:27:26.183Z,20.80
2022-10-10T14:29:58.218Z,20.40
2022-10-10T14:32:26.887Z,20.40
2022-10-10T14:34:54.895Z,19.60
2022-10-10T14:37:27.959Z,19.40
2022-10-10T14:39:57.026Z,19.70
2022-10-10T14:42:27.565Z,19.70
2022-10-10T14:44:55.665Z,20.00
2022-10-10T14:47:26.171Z,20.20
2022-10-10T14:49:56.623Z,20.40
2022-10-10T14:52:26.120Z,20.20
2022-10-10T14:54:54.740Z,19.80
2022-10-10T14:57:23.209Z,19.50
2022-10-10T14:59:51.736Z,18.90
2022-10-10T15:02:22.577Z,18.20
2022-10-10T15:04:52.330Z,17.40
2022-10-10T15:07:20.751Z,16.80
2022-10-10T15:10:26.134Z,16.30
2022-10-10T15:12:42.580Z,16.10
2022-10-10T15:15:12.812Z,15.80
2022-10-10T15:17:41.235Z,15.80
2022-10-10T15:20:12.874Z,15.70
2022-10-10T15:22:41.570Z,15.70
2022-10-10T15:25:11.365Z,15.70
2022-10-10T15:27:39.861Z,15.70
2022-10-10T15:30:09.882Z,15.60
2022-10-10T15:32:41.505Z,15.60
2022-10-10T15:35:14.241Z,15.50
2022-10-10T15:37:42.371Z,15.40
2022-10-10T15:40:14.026Z,15.30
2022-10-10T15:42:42.389Z,15.20
2022-10-10T15:45:11.665Z,15.10
2022-10-10T15:50:29.023Z,15.00
2022-10-10T15:52:57.026Z,14.70
2022-10-10T15:55:26.495Z,14.50
2022-10-10T15:57:54.495Z,14.40
2022-10-10T15:59:17.787Z,15.00
2022-10-10T16:00:22.813Z,14.30
2022-10-10T16:02:51.071Z,14.20
2022-10-10T16:05:19.292Z,14.10
2022-10-10T16:07:48.514Z,13.90
2022-10-10T16:10:17.285Z,13.80
2022-10-10T16:12:46.638Z,13.70
2022-10-10T16:15:14.788Z,13.60
2022-10-10T16:17:42.796Z,13.50
2022-10-10T16:20:12.265Z,13.40
2022-10-10T16:22:40.305Z,13.30
2022-10-10T16:25:24.015Z,13.20
2022-10-10T16:27:53.635Z,13.10
2022-10-10T16:30:22.215Z,13.00
2022-10-10T16:32:50.608Z,13.00
2022-10-10T16:35:18.768Z,12.90
2022-10-10T16:37:46.812Z,12.80
2022-10-10T16:40:15.136Z,12.80
2022-10-10T16:42:43.216Z,12.80
2022-10-10T16:45:13.434Z,12.70
2022-10-10T16:47:41.453Z,12.70
2022-10-10T16:50:11.306Z,12.60
2022-10-10T16:52:40.356Z,12.60
2022-10-10T16:55:11.199Z,12.60
2022-10-10T16:57:40.178Z,12.50
2022-10-10T17:00:10.617Z,12.50
2022-10-10T17:02:42.133Z,12.40
2022-10-10T17:05:11.078Z,12.40
2022-10-10T17:07:39.132Z,12.30
2022-10-10T17:10:08.814Z,12.20
2022-10-10T17:12:37.143Z,12.20
2022-10-10T17:15:06.716Z,12.10
2022-10-10T17:17:36.012Z,12.10
2022-10-10T17:20:07.854Z,12.00
2022-10-10T17:22:36.043Z,11.90
2022-10-10T17:25:04.515Z,11.80
2022-10-10T17:27:32.587Z,11.80
2022-10-10T17:30:00.702Z,11.80
2022-10-10T17:32:28.759Z,11.70
2022-10-10T17:34:56.897Z,11.60
2022-10-10T17:37:26.715Z,11.50
2022-10-10T17:39:54.921Z,11.50
2022-10-10T17:42:23.063Z,11.40
2022-10-10T17:44:56.053Z,11.40
2022-10-10T17:47:24.378Z,11.40
2022-10-10T17:49:53.123Z,11.30
2022-10-10T17:52:21.633Z,11.20
2022-10-10T17:54:51.449Z,11.20
2022-10-10T17:57:20.011Z,11.20
2022-10-10T17:59:48.045Z,11.20
2022-10-10T18:02:18.544Z,11.20
2022-10-10T18:04:47.118Z,11.10
2022-10-10T18:07:16.247Z,11.10
2022-10-10T18:09:44.387Z,11.00
2022-10-10T18:12:13.910Z,10.90
2022-10-10T18:14:41.908Z,11.00
2022-10-10T18:17:10.496Z,10.90
2022-10-10T18:19:39.417Z,10.90
2022-10-10T18:22:07.926Z,10.90
2022-10-10T18:24:36.243Z,10.80
2022-10-10T18:27:04.620Z,10.80
2022-10-10T18:29:34.492Z,10.90
2022-10-10T18:32:02.616Z,10.90
2022-10-10T18:34:30.682Z,10.90
2022-10-10T18:36:58.748Z,10.90
2022-10-10T18:39:32.229Z,11.00
2022-10-10T18:42:01.176Z,10.90
2022-10-10T18:44:29.555Z,11.00
2022-10-10T18:46:59.369Z,11.10
2022-10-10T18:49:27.890Z,11.20
2022-10-10T18:51:56.374Z,11.30
2022-10-10T18:54:27.105Z,11.40
2022-10-10T18:56:55.214Z,11.60
2022-10-10T18:59:23.531Z,11.70
2022-10-10T19:01:52.656Z,11.90
2022-10-10T19:04:23.828Z,11.90
2022-10-10T19:06:56.971Z,12.00
2022-10-10T19:09:26.730Z,12.20
2022-10-10T19:11:55.176Z,12.20
2022-10-10T19:14:23.541Z,12.10
2022-10-10T19:16:51.846Z,12.20
2022-10-10T19:19:24.020Z,12.20
2022-10-10T19:21:52.946Z,12.20
2022-10-10T19:24:22.450Z,12.20
2022-10-10T19:26:54.686Z,12.20
2022-10-10T19:29:23.963Z,12.30
2022-10-10T19:31:53.235Z,12.20
2022-10-10T19:34:23.323Z,12.10
2022-10-10T19:36:51.868Z,12.10
2022-10-10T19:39:19.956Z,12.00
2022-10-10T19:41:48.544Z,12.00
2022-10-10T19:44:16.587Z,12.00
2022-10-10T19:46:44.784Z,12.00
2022-10-10T19:49:12.801Z,11.90
2022-10-10T19:51:42.177Z,12.00
2022-10-10T19:54:10.423Z,12.00
2022-10-10T19:56:38.434Z,12.00
2022-10-10T19:59:06.672Z,11.90
2022-10-10T20:01:34.886Z,11.90
2022-10-10T20:04:03.019Z,11.90
2022-10-10T20:06:31.141Z,11.90
2022-10-10T20:09:00.576Z,11.90
2022-10-10T20:11:28.722Z,11.90
2022-10-10T20:13:57.363Z,11.90
2022-10-10T20:16:27.140Z,11.80
2022-10-10T20:18:57.493Z,11.70
2022-10-10T20:21:31.398Z,11.70
2022-10-10T20:24:03.573Z,11.60
2022-10-10T20:26:31.730Z,11.60
2022-10-10T20:29:00.288Z,11.50
2022-10-10T20:31:31.581Z,11.50
2022-10-10T20:34:03.443Z,11.40
2022-10-10T20:36:33.411Z,11.30
2022-10-10T20:39:06.602Z,11.20
2022-10-10T20:41:37.353Z,11.30
2022-10-10T20:44:09.027Z,11.50
2022-10-10T20:46:40.671Z,11.50
2022-10-10T20:49:14.291Z,11.60
2022-10-10T20:51:48.087Z,11.60
2022-10-10T20:54:19.605Z,11.60
2022-10-10T20:56:49.678Z,11.60
2022-10-10T20:59:18.979Z,11.60
2022-10-10T21:01:47.177Z,11.50
2022-10-10T21:04:15.506Z,11.40
2022-10-10T21:06:43.746Z,11.40
2022-10-10T21:09:15.339Z,11.40
2022-10-10T21:11:48.635Z,11.30
2022-10-10T21:14:19.398Z,11.30
2022-10-10T21:16:48.294Z,11.30
2022-10-10T21:19:16.515Z,11.20
2022-10-10T21:21:45.721Z,11.20
2022-10-10T21:24:14.410Z,11.10
2022-10-10T21:26:45.553Z,11.00
2022-10-10T21:29:13.783Z,11.00
2022-10-10T21:31:42.748Z,11.00
2022-10-10T21:34:16.997Z,10.90
2022-10-10T21:36:45.280Z,10.90
2022-10-10T21:39:14.123Z,10.80
2022-10-10T21:41:42.383Z,10.80
2022-10-10T21:44:12.409Z,10.70
2022-10-10T21:46:40.587Z,10.70
2022-10-10T21:49:10.869Z,10.60
2022-10-10T21:51:42.262Z,10.70
2022-10-10T21:54:10.991Z,10.70
2022-10-10T21:56:39.736Z,10.80
2022-10-10T21:59:08.754Z,10.60
2022-10-10T22:01:38.178Z,10.60
2022-10-10T22:04:07.157Z,10.60
2022-10-10T22:06:35.409Z,10.60
2022-10-10T22:09:06.405Z,10.70
2022-10-10T22:11:36.204Z,10.70
2022-10-10T22:14:05.056Z,10.70
2022-10-10T22:16:34.821Z,10.80
2022-10-10T22:19:05.557Z,10.80
2022-10-10T22:21:34.970Z,10.90
2022-10-10T22:24:07.139Z,11.00
2022-10-10T22:26:35.954Z,11.10
2022-10-10T22:29:04.941Z,11.30
2022-10-10T22:31:35.438Z,11.30
2022-10-10T22:34:05.240Z,11.50
2022-10-10T22:36:33.338Z,11.70
2022-10-10T22:39:01.361Z,11.70
2022-10-10T22:41:29.555Z,11.80
2022-10-10T22:43:57.664Z,11.90
2022-10-10T22:46:26.279Z,11.90
2022-10-10T22:48:54.303Z,12.10
2022-10-10T22:51:23.667Z,12.20
2022-10-10T22:53:51.955Z,12.30
2022-10-10T22:56:22.602Z,12.40
2022-10-10T22:58:52.344Z,12.40
2022-10-10T23:01:25.224Z,12.50
2022-10-10T23:03:56.365Z,12.60
2022-10-10T23:06:26.604Z,12.70
2022-10-10T23:08:55.333Z,12.70
2022-10-10T23:11:23.337Z,12.70
2022-10-10T23:13:52.170Z,12.60
2022-10-10T23:16:20.292Z,12.60
2022-10-10T23:18:48.350Z,12.60
2022-10-10T23:21:16.813Z,12.50
2022-10-10T23:23:46.120Z,12.50
2022-10-10T23:26:15.335Z,12.60
2022-10-10T23:28:44.858Z,12.50
2022-10-10T23:31:14.310Z,12.50
2022-10-10T23:33:42.721Z,12.50
2022-10-10T23:36:14.965Z,12.40
2022-10-10T23:38:45.456Z,12.30
2022-10-10T23:41:14.867Z,12.30
2022-10-10T23:43:43.060Z,12.30
2022-10-10T23:46:12.064Z,12.20
2022-10-10T23:48:40.486Z,12.20
2022-10-10T23:51:08.639Z,12.30
2022-10-10T23:53:37.199Z,12.20
2022-10-10T23:56:07.562Z,12.20
2022-10-10T23:58:36.300Z,12.10
